createdAt,value
2023-04-19T00:00:21.211Z,7.63
2023-04-19T00:02:49.650Z,7.29
2023-04-19T00:05:16.638Z,7.01
2023-04-19T00:07:43.629Z,7.37
2023-04-19T00:10:10.626Z,7.38
2023-04-19T00:12:37.525Z,6.83
2023-04-19T00:15:04.812Z,6.77
2023-04-19T00:17:32.132Z,7.15
2023-04-19T00:19:59.133Z,6.94
2023-04-19T00:22:26.917Z,7.09
2023-04-19T00:24:54.108Z,7.27
2023-04-19T00:27:21.102Z,7.12
2023-04-19T00:29:47.946Z,6.99
2023-04-19T00:32:16.287Z,6.80
2023-04-19T00:34:43.085Z,6.73
2023-04-19T00:37:11.224Z,7.77
2023-04-19T00:39:38.161Z,7.56
2023-04-19T00:42:05.008Z,7.27
2023-04-19T00:44:31.869Z,6.89
2023-04-19T00:47:00.052Z,6.74
2023-04-19T00:49:27.816Z,6.63
2023-04-19T00:51:54.627Z,6.53
2023-04-19T00:54:21.886Z,6.56
2023-04-19T00:56:48.595Z,6.28
2023-04-19T00:59:16.863Z,6.38
2023-04-19T01:01:43.869Z,6.24
2023-04-19T01:04:11.079Z,6.32
2023-04-19T01:06:40.423Z,6.21
2023-04-19T01:09:07.468Z,5.82
2023-04-19T01:11:34.416Z,6.29
2023-04-19T01:14:01.524Z,6.07
2023-04-19T01:16:28.733Z,5.95
2023-04-19T01:18:55.817Z,6.24
2023-04-19T01:21:22.705Z,6.25
2023-04-19T01:23:49.466Z,6.29
2023-04-19T01:26:16.518Z,6.26
2023-04-19T01:28:43.447Z,6.37
2023-04-19T01:31:10.310Z,6.16
2023-04-19T01:33:37.182Z,6.25
2023-04-19T01:36:04.815Z,6.48
2023-04-19T01:38:31.700Z,6.40
2023-04-19T01:40:58.763Z,6.22
2023-04-19T01:43:32.077Z,5.85
2023-04-19T01:45:58.862Z,5.61
2023-04-19T01:48:25.831Z,5.71
2023-04-19T01:50:52.658Z,5.70
2023-04-19T01:53:19.623Z,5.97
2023-04-19T01:55:46.374Z,5.85
2023-04-19T01:58:13.218Z,5.84
2023-04-19T02:00:40.388Z,5.99
2023-04-19T02:03:07.384Z,5.88
2023-04-19T02:05:34.371Z,6.10
2023-04-19T02:08:01.934Z,6.01
2023-04-19T02:10:28.706Z,6.31
2023-04-19T02:12:55.560Z,6.31
2023-04-19T02:15:22.385Z,6.27
2023-04-19T02:17:49.679Z,6.43
2023-04-19T02:20:16.541Z,6.35
2023-04-19T02:22:44.170Z,6.26
2023-04-19T02:25:11.209Z,6.34
2023-04-19T02:27:37.996Z,6.25
2023-04-19T02:30:05.301Z,6.17
2023-04-19T02:32:32.574Z,5.95
2023-04-19T02:34:59.630Z,5.52
2023-04-19T02:37:26.440Z,6.27
2023-04-19T02:39:53.628Z,6.29
2023-04-19T02:42:21.022Z,6.00
2023-04-19T02:44:47.892Z,6.06
2023-04-19T02:47:14.752Z,6.14
2023-04-19T02:49:42.878Z,6.39
2023-04-19T02:52:10.361Z,6.01
2023-04-19T02:54:37.282Z,5.76
2023-04-19T02:57:04.188Z,5.57
2023-04-19T02:59:31.105Z,6.10
2023-04-19T03:01:58.076Z,6.40
2023-04-19T03:04:25.169Z,6.27
2023-04-19T03:06:52.997Z,6.10
2023-04-19T03:09:19.806Z,6.29
2023-04-19T03:11:46.558Z,6.26
2023-04-19T03:14:13.460Z,6.47
2023-04-19T03:16:41.031Z,6.24
2023-04-19T03:19:07.945Z,6.14
2023-04-19T03:21:34.913Z,6.21
2023-04-19T03:24:02.168Z,6.47
2023-04-19T03:26:29.000Z,6.24
2023-04-19T03:28:55.844Z,6.18
2023-04-19T03:31:22.814Z,6.15
2023-04-19T03:33:49.722Z,6.18
2023-04-19T03:36:16.893Z,6.40
2023-04-19T03:38:44.670Z,6.31
2023-04-19T03:41:21.952Z,6.25
2023-04-19T03:43:48.661Z,6.27
2023-04-19T03:46:15.579Z,6.21
2023-04-19T03:48:42.498Z,5.84
2023-04-19T03:51:09.380Z,5.94
2023-04-19T03:53:37.122Z,5.89
2023-04-19T03:56:04.047Z,5.79
2023-04-19T03:58:30.958Z,5.50
2023-04-19T04:00:59.186Z,6.08
2023-04-19T04:03:26.573Z,6.30
2023-04-19T04:05:56.631Z,6.08
2023-04-19T04:08:23.410Z,5.98
2023-04-19T04:10:50.215Z,5.53
2023-04-19T04:13:16.998Z,5.35
2023-04-19T04:15:43.834Z,5.27
2023-04-19T04:18:11.547Z,5.27
2023-04-19T04:20:38.233Z,5.94
2023-04-19T04:23:05.107Z,5.88
2023-04-19T04:25:33.248Z,6.14
2023-04-19T04:28:00.218Z,5.74
2023-04-19T04:30:27.975Z,5.68
2023-04-19T04:32:58.259Z,5.78
2023-04-19T04:35:25.475Z,5.68
2023-04-19T04:37:54.130Z,5.86
2023-04-19T04:40:21.681Z,5.82
2023-04-19T04:42:48.903Z,6.04
2023-04-19T04:45:18.565Z,5.89
2023-04-19T04:47:46.661Z,5.90
2023-04-19T04:50:13.406Z,5.88
2023-04-19T04:52:40.195Z,6.02
2023-04-19T04:55:07.573Z,5.74
2023-04-19T04:57:34.406Z,5.76
2023-04-19T05:00:01.178Z,5.78
2023-04-19T05:02:28.046Z,5.70
2023-04-19T05:04:54.837Z,5.63
2023-04-19T05:07:21.656Z,5.57
2023-04-19T05:09:48.514Z,5.31
2023-04-19T05:12:15.653Z,5.49
2023-04-19T05:14:42.414Z,5.68
2023-04-19T05:17:09.250Z,5.47
2023-04-19T05:19:36.044Z,5.77
2023-04-19T05:22:02.854Z,5.95
2023-04-19T05:24:29.585Z,5.69
2023-04-19T05:26:56.830Z,6.00
2023-04-19T05:29:23.547Z,5.82
2023-04-19T05:31:50.341Z,5.78
2023-04-19T05:34:19.063Z,6.18
2023-04-19T05:36:47.161Z,5.80
2023-04-19T05:39:14.143Z,5.74
2023-04-19T05:41:41.193Z,5.89
2023-04-19T05:44:07.881Z,5.45
2023-04-19T05:46:34.755Z,6.11
2023-04-19T05:49:01.551Z,5.92
2023-04-19T05:51:28.469Z,6.16
2023-04-19T05:53:57.295Z,6.12
2023-04-19T05:56:24.216Z,5.81
2023-04-19T05:58:50.985Z,6.18
2023-04-19T06:01:17.959Z,6.14
2023-04-19T06:03:44.943Z,5.86
2023-04-19T06:06:11.878Z,5.88
2023-04-19T06:08:38.653Z,6.03
2023-04-19T06:11:15.777Z,6.33
2023-04-19T06:13:51.514Z,6.00
2023-04-19T06:16:18.349Z,5.97
2023-04-19T06:18:45.453Z,6.17
2023-04-19T06:21:12.153Z,6.18
2023-04-19T06:23:38.851Z,6.20
2023-04-19T06:26:05.897Z,6.41
2023-04-19T06:28:32.627Z,6.45
2023-04-19T06:30:59.386Z,6.57
2023-04-19T06:33:26.248Z,6.62
2023-04-19T06:35:53.218Z,6.87
2023-04-19T06:38:19.956Z,8.20
2023-04-19T06:40:46.676Z,8.28
2023-04-19T06:43:13.473Z,9.18
2023-04-19T06:45:40.197Z,9.70
2023-04-19T06:48:06.942Z,9.91
2023-04-19T06:50:33.932Z,9.91
2023-04-19T06:53:01.181Z,9.55
2023-04-19T06:55:29.049Z,10.21
2023-04-19T06:57:55.768Z,10.73
2023-04-19T07:00:23.239Z,10.67
2023-04-19T07:02:52.414Z,10.91
2023-04-19T07:05:19.425Z,10.98
2023-04-19T07:07:46.180Z,10.94
2023-04-19T07:10:13.102Z,11.56
2023-04-19T07:12:39.892Z,11.78
2023-04-19T07:15:07.085Z,11.78
2023-04-19T07:17:36.078Z,11.47
2023-04-19T07:20:04.646Z,11.04
2023-04-19T07:22:31.421Z,11.33
2023-04-19T07:24:58.680Z,11.87
2023-04-19T07:27:26.048Z,11.74
2023-04-19T07:29:53.403Z,11.07
2023-04-19T07:32:21.059Z,11.40
2023-04-19T07:34:47.911Z,11.53
2023-04-19T07:37:14.726Z,11.67
2023-04-19T07:39:41.615Z,12.06
2023-04-19T07:42:08.515Z,12.40
2023-04-19T07:44:35.352Z,12.18
2023-04-19T07:47:02.036Z,12.44
2023-04-19T07:49:34.056Z,11.75
2023-04-19T07:52:04.681Z,11.87
2023-04-19T07:54:32.358Z,12.48
2023-04-19T07:56:59.241Z,12.18
2023-04-19T07:59:26.166Z,11.98
2023-04-19T08:01:53.028Z,12.54
2023-04-19T08:04:21.075Z,12.68
2023-04-19T08:06:48.333Z,12.55
2023-04-19T08:09:15.143Z,12.33
2023-04-19T08:11:43.260Z,12.69
2023-04-19T08:14:21.839Z,13.13
2023-04-19T08:17:22.428Z,12.84
2023-04-19T08:19:43.507Z,12.61
2023-04-19T08:22:10.757Z,12.37
2023-04-19T08:24:37.513Z,12.25
2023-04-19T08:27:04.251Z,12.13
2023-04-19T08:29:30.953Z,12.24
2023-04-19T08:31:57.700Z,12.33
2023-04-19T08:34:24.552Z,12.98
2023-04-19T08:37:03.455Z,12.66
2023-04-19T08:39:34.009Z,12.95
2023-04-19T08:42:10.911Z,13.17
2023-04-19T08:44:53.820Z,13.47
2023-04-19T08:47:32.316Z,13.74
2023-04-19T08:52:47.763Z,14.17
2023-04-19T08:55:21.403Z,13.87
2023-04-19T08:57:48.728Z,13.89
2023-04-19T09:00:15.936Z,13.78
2023-04-19T09:02:48.439Z,14.54
2023-04-19T09:05:16.441Z,14.41
2023-04-19T09:07:44.101Z,14.46
2023-04-19T09:10:13.622Z,14.78
2023-04-19T09:12:41.417Z,14.41
2023-04-19T09:15:09.360Z,14.38
2023-04-19T09:17:37.466Z,13.94
2023-04-19T09:20:06.354Z,13.97
2023-04-19T09:22:34.184Z,14.20
2023-04-19T09:27:32.953Z,14.13
2023-04-19T09:30:01.498Z,14.12
2023-04-19T09:32:29.638Z,13.91
2023-04-19T09:35:00.562Z,13.93
2023-04-19T09:39:57.201Z,13.89
2023-04-19T09:42:47.459Z,13.78
2023-04-19T09:47:41.014Z,13.44
2023-04-19T09:50:22.479Z,13.69
2023-04-19T09:52:52.808Z,13.91
2023-04-19T09:57:50.449Z,13.56
2023-04-19T10:00:17.391Z,13.66
2023-04-19T10:02:48.886Z,13.90
2023-04-19T10:05:21.311Z,13.26
2023-04-19T10:07:50.456Z,13.58
2023-04-19T10:10:20.897Z,13.97
2023-04-19T10:15:23.923Z,13.79
2023-04-19T10:17:51.393Z,13.68
2023-04-19T10:20:25.220Z,13.59
2023-04-19T10:22:52.168Z,13.83
2023-04-19T10:25:19.166Z,13.74
2023-04-19T10:27:49.187Z,14.19
2023-04-19T10:30:29.170Z,14.39
2023-04-19T10:32:58.289Z,13.99
2023-04-19T10:35:29.603Z,13.98
2023-04-19T10:38:13.928Z,13.77
2023-04-19T10:41:01.738Z,14.73
2023-04-19T10:43:31.269Z,14.38
2023-04-19T10:46:08.108Z,14.43
2023-04-19T10:48:38.729Z,14.09
2023-04-19T10:51:07.496Z,14.28
2023-04-19T10:53:53.946Z,14.16
2023-04-19T10:56:21.889Z,13.83
2023-04-19T10:59:08.182Z,14.18
2023-04-19T11:01:43.253Z,13.85
2023-04-19T11:04:12.044Z,14.41
2023-04-19T11:06:57.288Z,13.96
2023-04-19T11:09:28.735Z,14.20
2023-04-19T11:12:00.984Z,14.59
2023-04-19T11:14:31.741Z,14.33
2023-04-19T11:16:59.098Z,14.22
2023-04-19T11:19:26.118Z,13.86
2023-04-19T11:21:52.912Z,14.64
2023-04-19T11:24:20.841Z,13.91
2023-04-19T11:26:52.146Z,13.64
2023-04-19T11:29:21.970Z,13.81
2023-04-19T11:31:48.939Z,14.08
2023-04-19T11:34:15.954Z,14.38
2023-04-19T11:36:50.654Z,14.17
2023-04-19T11:39:17.777Z,13.95
2023-04-19T11:41:44.685Z,14.04
2023-04-19T11:44:21.770Z,14.32
2023-04-19T11:47:02.862Z,14.53
2023-04-19T11:49:32.399Z,14.30
2023-04-19T11:52:06.446Z,14.56
2023-04-19T11:54:33.961Z,14.64
2023-04-19T11:57:06.278Z,14.54
2023-04-19T11:59:34.990Z,14.50
2023-04-19T12:02:06.573Z,13.78
2023-04-19T12:04:33.686Z,14.16
2023-04-19T12:07:02.535Z,14.26
2023-04-19T12:09:29.401Z,14.13
2023-04-19T12:11:57.245Z,14.41
2023-04-19T12:14:24.371Z,14.45
2023-04-19T12:17:11.987Z,13.92
2023-04-19T12:19:44.651Z,14.20
2023-04-19T12:22:14.303Z,14.76
2023-04-19T12:24:41.321Z,14.45
2023-04-19T12:27:09.010Z,14.53
2023-04-19T12:29:38.988Z,13.99
2023-04-19T12:32:06.346Z,14.16
2023-04-19T12:34:33.315Z,13.91
2023-04-19T12:37:00.176Z,13.85
2023-04-19T12:39:26.962Z,14.56
2023-04-19T12:41:53.712Z,14.22
2023-04-19T12:44:20.571Z,14.41
2023-04-19T12:46:47.283Z,14.64
2023-04-19T12:49:14.265Z,14.31
2023-04-19T12:51:42.788Z,14.44
2023-04-19T12:54:09.597Z,14.24
2023-04-19T12:56:36.423Z,14.28
2023-04-19T12:59:03.177Z,14.52
2023-04-19T13:01:29.961Z,14.64
2023-04-19T13:03:59.280Z,14.34
2023-04-19T13:06:27.878Z,14.95
2023-04-19T13:08:55.149Z,14.78
2023-04-19T13:11:23.614Z,14.70
2023-04-19T13:13:52.362Z,14.68
2023-04-19T13:16:20.031Z,14.61
2023-04-19T13:18:47.404Z,14.85
2023-04-19T13:21:14.151Z,14.77
2023-04-19T13:23:44.885Z,14.95
2023-04-19T13:26:12.208Z,15.40
2023-04-19T13:28:40.189Z,14.97
2023-04-19T13:31:07.057Z,14.93
2023-04-19T13:33:34.103Z,15.31
2023-04-19T13:36:00.900Z,14.97
2023-04-19T13:38:27.704Z,14.98
2023-04-19T13:40:54.414Z,14.72
2023-04-19T13:43:21.493Z,15.02
2023-04-19T13:45:48.189Z,14.67
2023-04-19T13:48:15.066Z,14.49
2023-04-19T13:50:41.828Z,15.08
2023-04-19T13:53:08.773Z,14.86
2023-04-19T13:55:35.635Z,14.52
2023-04-19T13:58:02.402Z,14.84
2023-04-19T14:00:29.350Z,15.07
2023-04-19T14:02:56.991Z,14.77
2023-04-19T14:05:23.952Z,15.21
2023-04-19T14:07:50.751Z,14.89
2023-04-19T14:10:17.661Z,15.28
2023-04-19T14:12:45.173Z,15.10
2023-04-19T14:15:13.094Z,15.44
2023-04-19T14:17:40.080Z,15.19
2023-04-19T14:20:07.592Z,15.28
2023-04-19T14:22:35.525Z,14.99
2023-04-19T14:25:03.912Z,14.78
2023-04-19T14:27:30.739Z,14.98
2023-04-19T14:29:57.872Z,14.69
2023-04-19T14:32:27.069Z,14.86
2023-04-19T14:34:56.045Z,15.44
2023-04-19T14:37:24.531Z,14.82
2023-04-19T14:39:51.791Z,15.19
2023-04-19T14:42:21.547Z,15.30
2023-04-19T14:44:51.331Z,15.54
2023-04-19T14:47:18.110Z,15.34
2023-04-19T14:49:44.806Z,15.51
2023-04-19T14:52:11.650Z,15.79
2023-04-19T14:54:38.428Z,15.81
2023-04-19T14:57:05.209Z,15.96
2023-04-19T14:59:31.972Z,15.70
2023-04-19T15:01:58.776Z,15.86
2023-04-19T15:04:25.937Z,15.74
2023-04-19T15:06:52.852Z,15.63
2023-04-19T15:09:19.585Z,15.38
2023-04-19T15:11:46.336Z,15.51
2023-04-19T15:14:13.154Z,15.41
2023-04-19T15:16:39.966Z,15.19
2023-04-19T15:19:07.737Z,14.99
2023-04-19T15:21:34.784Z,14.36
2023-04-19T15:24:01.714Z,14.74
2023-04-19T15:26:28.463Z,14.56
2023-04-19T15:28:56.549Z,14.81
2023-04-19T15:31:25.267Z,14.78
2023-04-19T15:33:53.200Z,14.75
2023-04-19T15:36:19.960Z,14.40
2023-04-19T15:38:46.762Z,14.22
2023-04-19T15:41:13.589Z,14.32
2023-04-19T15:43:40.340Z,14.34
2023-04-19T15:46:07.125Z,14.35
2023-04-19T15:48:33.918Z,14.28
2023-04-19T15:51:01.513Z,13.63
2023-04-19T15:53:29.064Z,13.92
2023-04-19T15:55:56.754Z,14.12
2023-04-19T15:58:24.275Z,14.22
2023-04-19T16:00:51.249Z,13.88
2023-04-19T16:03:18.164Z,13.85
2023-04-19T16:05:44.942Z,13.22
2023-04-19T16:08:12.318Z,13.78
2023-04-19T16:10:39.547Z,13.93
2023-04-19T16:13:06.519Z,13.80
2023-04-19T16:15:33.405Z,13.70
2023-04-19T16:18:00.814Z,13.56
2023-04-19T16:20:27.606Z,13.59
2023-04-19T16:22:54.405Z,13.30
2023-04-19T16:25:21.372Z,13.60
2023-04-19T16:27:54.521Z,13.83
2023-04-19T16:30:22.435Z,13.70
2023-04-19T16:32:52.294Z,13.73
2023-04-19T16:35:19.116Z,13.86
2023-04-19T16:37:46.024Z,13.51
2023-04-19T16:40:15.929Z,13.30
2023-04-19T16:42:42.787Z,13.39
2023-04-19T16:45:09.686Z,13.50
2023-04-19T16:47:36.676Z,13.33
2023-04-19T16:50:06.343Z,13.25
2023-04-19T16:52:35.635Z,13.37
2023-04-19T16:55:04.482Z,13.62
2023-04-19T16:57:32.713Z,13.07
2023-04-19T16:59:59.610Z,13.00
2023-04-19T17:02:26.551Z,12.81
2023-04-19T17:04:53.865Z,12.85
2023-04-19T17:07:20.719Z,13.05
2023-04-19T17:09:47.470Z,12.65
2023-04-19T17:12:14.482Z,12.43
2023-04-19T17:14:44.661Z,12.56
2023-04-19T17:17:12.087Z,12.83
2023-04-19T17:19:38.835Z,12.21
2023-04-19T17:22:06.147Z,12.32
2023-04-19T17:24:33.963Z,12.94
2023-04-19T17:27:01.259Z,12.84
2023-04-19T17:29:28.112Z,13.45
2023-04-19T17:31:56.179Z,13.48
2023-04-19T17:34:23.310Z,12.84
2023-04-19T17:36:50.273Z,12.80
2023-04-19T17:39:18.854Z,12.79
2023-04-19T17:41:45.778Z,12.94
2023-04-19T17:44:12.690Z,12.94
2023-04-19T17:46:40.361Z,12.87
2023-04-19T17:49:07.156Z,12.70
2023-04-19T17:51:33.964Z,12.52
2023-04-19T17:54:00.840Z,13.22
2023-04-19T17:56:27.665Z,12.81
2023-04-19T17:58:54.400Z,12.83
2023-04-19T18:01:21.408Z,13.11
2023-04-19T18:03:48.377Z,12.93
2023-04-19T18:06:16.559Z,12.80
2023-04-19T18:08:46.137Z,12.60
2023-04-19T18:11:18.305Z,12.62
2023-04-19T18:13:45.426Z,12.44
2023-04-19T18:16:13.890Z,12.40
2023-04-19T18:18:40.811Z,12.25
2023-04-19T18:21:08.516Z,12.58
2023-04-19T18:23:35.297Z,12.38
2023-04-19T18:26:04.159Z,12.47
2023-04-19T18:28:31.089Z,11.86
2023-04-19T18:30:57.893Z,11.77
2023-04-19T18:33:24.664Z,12.25
2023-04-19T18:35:53.256Z,12.27
2023-04-19T18:38:23.060Z,12.05
2023-04-19T18:40:50.099Z,12.12
2023-04-19T18:43:21.555Z,11.87
2023-04-19T18:45:56.117Z,11.84
2023-04-19T18:48:28.576Z,11.93
2023-04-19T18:50:57.177Z,11.96
2023-04-19T18:53:26.945Z,11.53
2023-04-19T18:55:57.781Z,12.02
2023-04-19T18:58:26.487Z,11.67
2023-04-19T19:00:53.832Z,11.76
2023-04-19T19:03:52.510Z,11.82
2023-04-19T19:06:09.833Z,11.71
2023-04-19T19:08:36.787Z,11.66
2023-04-19T19:13:33.244Z,11.39
2023-04-19T19:16:00.061Z,11.54
2023-04-19T19:18:29.594Z,11.20
2023-04-19T19:21:02.208Z,11.29
2023-04-19T19:23:36.031Z,11.29
2023-04-19T19:26:06.364Z,11.58
2023-04-19T19:28:33.134Z,11.20
2023-04-19T19:30:59.943Z,11.02
2023-04-19T19:33:28.747Z,11.01
2023-04-19T19:35:55.857Z,11.29
2023-04-19T19:38:22.579Z,11.36
2023-04-19T19:43:19.038Z,11.17
2023-04-19T19:45:46.030Z,10.80
2023-04-19T19:48:12.929Z,10.78
2023-04-19T19:51:10.670Z,10.82
2023-04-19T19:53:26.466Z,10.81
2023-04-19T19:55:53.305Z,10.76
2023-04-19T19:58:42.953Z,11.02
2023-04-19T20:01:07.608Z,10.73
2023-04-19T20:03:37.332Z,10.85
2023-04-19T20:08:41.393Z,10.71
2023-04-19T20:11:10.698Z,10.81
2023-04-19T20:13:37.720Z,10.57
2023-04-19T20:16:04.638Z,10.82
2023-04-19T20:18:31.421Z,10.34
2023-04-19T20:20:58.928Z,10.34
2023-04-19T20:23:26.101Z,9.58
2023-04-19T20:25:53.299Z,9.62
2023-04-19T20:28:20.199Z,9.16
2023-04-19T20:30:47.038Z,9.56
2023-04-19T20:33:14.238Z,10.32
2023-04-19T20:35:42.556Z,9.94
2023-04-19T20:38:10.027Z,9.63
2023-04-19T20:40:37.438Z,9.56
2023-04-19T20:43:04.479Z,9.78
2023-04-19T20:45:31.577Z,9.70
2023-04-19T20:47:58.808Z,9.56
2023-04-19T20:50:26.093Z,9.28
2023-04-19T20:52:53.074Z,8.79
2023-04-19T20:55:19.910Z,9.49
2023-04-19T20:57:47.034Z,10.09
2023-04-19T21:00:16.807Z,10.12
2023-04-19T21:02:44.576Z,9.90
2023-04-19T21:05:11.809Z,9.63
2023-04-19T21:07:38.772Z,10.01
2023-04-19T21:10:06.563Z,9.75
2023-04-19T21:12:34.440Z,9.40
2023-04-19T21:15:01.296Z,9.73
2023-04-19T21:17:28.135Z,9.52
2023-04-19T21:19:55.070Z,9.73
2023-04-19T21:22:21.784Z,9.60
2023-04-19T21:24:48.626Z,9.73
2023-04-19T21:27:15.436Z,9.63
2023-04-19T21:29:42.158Z,9.45
2023-04-19T21:32:08.884Z,9.60
2023-04-19T21:34:35.641Z,9.63
2023-04-19T21:37:02.406Z,9.69
2023-04-19T21:39:29.253Z,9.67
2023-04-19T21:41:56.306Z,9.59
2023-04-19T21:44:23.073Z,9.47
2023-04-19T21:46:49.825Z,9.78
2023-04-19T21:49:16.784Z,9.37
2023-04-19T21:51:43.682Z,9.28
2023-04-19T21:54:10.762Z,9.33
2023-04-19T21:56:39.486Z,9.32
2023-04-19T21:59:06.288Z,9.60
2023-04-19T22:01:33.061Z,9.13
2023-04-19T22:04:00.159Z,9.09
2023-04-19T22:06:27.802Z,8.99
2023-04-19T22:08:54.609Z,9.22
2023-04-19T22:11:21.517Z,9.24
2023-04-19T22:13:48.249Z,9.16
2023-04-19T22:16:15.128Z,9.20
2023-04-19T22:18:41.940Z,9.14
2023-04-19T22:21:12.015Z,8.97
2023-04-19T22:23:38.751Z,9.13
2023-04-19T22:26:05.781Z,8.92
2023-04-19T22:28:33.898Z,8.95
2023-04-19T22:31:00.743Z,8.93
2023-04-19T22:33:27.606Z,8.95
2023-04-19T22:35:54.360Z,8.95
2023-04-19T22:38:21.352Z,8.72
2023-04-19T22:40:48.136Z,8.93
2023-04-19T22:43:14.897Z,8.92
2023-04-19T22:45:41.804Z,9.04
2023-04-19T22:48:09.032Z,8.98
2023-04-19T22:50:36.694Z,8.89
2023-04-19T22:53:03.438Z,8.85
2023-04-19T22:55:30.186Z,8.80
2023-04-19T22:57:56.981Z,8.60
2023-04-19T23:00:24.274Z,9.00
2023-04-19T23:02:51.332Z,8.88
2023-04-19T23:05:18.315Z,8.77
2023-04-19T23:07:45.420Z,8.86
2023-04-19T23:10:12.659Z,9.04
2023-04-19T23:12:39.498Z,8.96
2023-04-19T23:15:07.215Z,9.01
2023-04-19T23:17:34.768Z,9.16
2023-04-19T23:20:01.620Z,9.27
2023-04-19T23:22:28.321Z,9.21
2023-04-19T23:24:55.111Z,9.19
2023-04-19T23:27:22.181Z,9.17
2023-04-19T23:29:48.871Z,9.44
2023-04-19T23:32:15.706Z,9.25
2023-04-19T23:34:42.397Z,9.12
2023-04-19T23:37:09.163Z,9.28
2023-04-19T23:39:35.948Z,9.40
2023-04-19T23:42:02.672Z,9.24
2023-04-19T23:44:29.964Z,9.28
2023-04-19T23:46:56.898Z,9.21
2023-04-19T23:49:23.672Z,9.10
2023-04-19T23:51:53.186Z,9.12
2023-04-19T23:54:22.389Z,9.20
2023-04-19T23:56:49.779Z,9.07
2023-04-19T23:59:16.762Z,9.13
